sensor_id;sensor_type;location;lat;lon;timestamp;P1;durP1;ratioP1;P2;durP2;ratioP2
69246;SDS011;56358;56.328;43.992;2023-04-03T00:00:40;19.08;;;8.13;;
69246;SDS011;56358;56.328;43.992;2023-04-03T00:02:41;16.27;;;8.15;;
69246;SDS011;56358;56.328;43.992;2023-04-03T00:04:41;15.07;;;8.38;;
69246;SDS011;56358;56.328;43.992;2023-04-03T00:06:42;15.73;;;7.72;;
69246;SDS011;56358;56.328;43.992;2023-04-03T00:08:43;18.75;;;8.90;;
69246;SDS011;56358;56.328;43.992;2023-04-03T00:10:44;16.10;;;7.80;;
69246;SDS011;56358;56.328;43.992;2023-04-03T00:12:44;16.33;;;8.48;;
69246;SDS011;56358;56.328;43.992;2023-04-03T00:14:45;17.90;;;8.38;;
69246;SDS011;56358;56.328;43.992;2023-04-03T00:16:45;23.23;;;10.73;;
69246;SDS011;56358;56.328;43.992;2023-04-03T00:18:46;26.30;;;12.65;;
69246;SDS011;56358;56.328;43.992;2023-04-03T00:20:47;27.23;;;13.50;;
69246;SDS011;56358;56.328;43.992;2023-04-03T00:22:48;25.15;;;12.13;;
69246;SDS011;56358;56.328;43.992;2023-04-03T00:24:48;30.08;;;13.13;;
69246;SDS011;56358;56.328;43.992;2023-04-03T00:26:49;27.92;;;13.55;;
69246;SDS011;56358;56.328;43.992;2023-04-03T00:28:50;27.60;;;12.13;;
69246;SDS011;56358;56.328;43.992;2023-04-03T00:30:51;25.88;;;11.55;;
69246;SDS011;56358;56.328;43.992;2023-04-03T00:32:51;27.35;;;12.25;;
69246;SDS011;56358;56.328;43.992;2023-04-03T00:34:52;25.50;;;12.10;;
69246;SDS011;56358;56.328;43.992;2023-04-03T00:36:53;27.35;;;12.77;;
69246;SDS011;56358;56.328;43.992;2023-04-03T00:38:54;30.45;;;13.45;;
69246;SDS011;56358;56.328;43.992;2023-04-03T00:40:55;28.00;;;13.18;;
69246;SDS011;56358;56.328;43.992;2023-04-03T00:42:57;30.95;;;13.32;;
69246;SDS011;56358;56.328;43.992;2023-04-03T00:47:01;28.55;;;12.05;;
69246;SDS011;56358;56.328;43.992;2023-04-03T00:49:04;29.25;;;13.40;;
69246;SDS011;56358;56.328;43.992;2023-04-03T00:51:06;25.90;;;12.43;;
69246;SDS011;56358;56.328;43.992;2023-04-03T00:53:11;30.67;;;13.30;;
69246;SDS011;56358;56.328;43.992;2023-04-03T00:55:14;27.17;;;11.82;;
69246;SDS011;56358;56.328;43.992;2023-04-03T00:57:16;28.58;;;12.45;;
69246;SDS011;56358;56.328;43.992;2023-04-03T00:59:25;25.02;;;11.30;;
69246;SDS011;56358;56.328;43.992;2023-04-03T01:01:30;22.77;;;11.30;;
69246;SDS011;56358;56.328;43.992;2023-04-03T01:03:31;19.60;;;9.65;;
69246;SDS011;56358;56.328;43.992;2023-04-03T01:05:32;20.90;;;10.13;;
69246;SDS011;56358;56.328;43.992;2023-04-03T01:07:33;18.17;;;9.32;;
69246;SDS011;56358;56.328;43.992;2023-04-03T01:09:35;18.63;;;7.68;;
69246;SDS011;56358;56.328;43.992;2023-04-03T01:11:37;17.27;;;8.50;;
69246;SDS011;56358;56.328;43.992;2023-04-03T01:13:38;13.55;;;6.90;;
69246;SDS011;56358;56.328;43.992;2023-04-03T01:15:39;14.07;;;6.88;;
69246;SDS011;56358;56.328;43.992;2023-04-03T01:17:41;14.15;;;7.28;;
69246;SDS011;56358;56.328;43.992;2023-04-03T01:19:44;13.52;;;7.53;;
69246;SDS011;56358;56.328;43.992;2023-04-03T01:22:15;16.42;;;7.88;;
69246;SDS011;56358;56.328;43.992;2023-04-03T01:24:27;16.15;;;7.35;;
69246;SDS011;56358;56.328;43.992;2023-04-03T01:26:36;18.75;;;8.73;;
69246;SDS011;56358;56.328;43.992;2023-04-03T01:28:37;14.63;;;8.30;;
69246;SDS011;56358;56.328;43.992;2023-04-03T01:30:43;17.10;;;8.00;;
69246;SDS011;56358;56.328;43.992;2023-04-03T01:32:49;19.95;;;9.57;;
69246;SDS011;56358;56.328;43.992;2023-04-03T01:34:49;18.33;;;9.75;;
69246;SDS011;56358;56.328;43.992;2023-04-03T01:36:50;18.77;;;10.07;;
69246;SDS011;56358;56.328;43.992;2023-04-03T01:38:51;15.90;;;9.18;;
69246;SDS011;56358;56.328;43.992;2023-04-03T01:40:53;17.27;;;9.93;;
69246;SDS011;56358;56.328;43.992;2023-04-03T01:42:54;20.20;;;11.38;;
69246;SDS011;56358;56.328;43.992;2023-04-03T01:44:55;20.00;;;11.95;;
69246;SDS011;56358;56.328;43.992;2023-04-03T01:46:55;20.55;;;11.40;;
69246;SDS011;56358;56.328;43.992;2023-04-03T01:48:56;22.60;;;11.88;;
69246;SDS011;56358;56.328;43.992;2023-04-03T01:50:57;22.25;;;12.15;;
69246;SDS011;56358;56.328;43.992;2023-04-03T01:52:57;21.10;;;12.43;;
69246;SDS011;56358;56.328;43.992;2023-04-03T01:54:58;20.13;;;11.80;;
69246;SDS011;56358;56.328;43.992;2023-04-03T01:56:58;17.25;;;10.10;;
69246;SDS011;56358;56.328;43.992;2023-04-03T01:58:59;17.90;;;10.60;;
69246;SDS011;56358;56.328;43.992;2023-04-03T02:01:00;19.38;;;11.45;;
69246;SDS011;56358;56.328;43.992;2023-04-03T02:03:02;20.27;;;11.07;;
69246;SDS011;56358;56.328;43.992;2023-04-03T02:05:02;16.38;;;10.18;;
69246;SDS011;56358;56.328;43.992;2023-04-03T02:07:03;17.30;;;9.93;;
69246;SDS011;56358;56.328;43.992;2023-04-03T02:09:04;16.75;;;9.77;;
69246;SDS011;56358;56.328;43.992;2023-04-03T02:11:05;17.25;;;10.30;;
69246;SDS011;56358;56.328;43.992;2023-04-03T02:13:06;18.83;;;9.90;;
69246;SDS011;56358;56.328;43.992;2023-04-03T02:15:07;17.67;;;10.27;;
69246;SDS011;56358;56.328;43.992;2023-04-03T02:17:11;18.05;;;10.43;;
69246;SDS011;56358;56.328;43.992;2023-04-03T02:19:11;18.00;;;11.00;;
69246;SDS011;56358;56.328;43.992;2023-04-03T02:21:12;18.40;;;10.75;;
69246;SDS011;56358;56.328;43.992;2023-04-03T02:23:13;16.27;;;10.05;;
69246;SDS011;56358;56.328;43.992;2023-04-03T02:25:13;16.90;;;9.52;;
69246;SDS011;56358;56.328;43.992;2023-04-03T02:27:14;16.55;;;9.70;;
69246;SDS011;56358;56.328;43.992;2023-04-03T02:29:15;15.13;;;8.70;;
69246;SDS011;56358;56.328;43.992;2023-04-03T02:31:16;13.95;;;8.70;;
69246;SDS011;56358;56.328;43.992;2023-04-03T02:33:17;14.63;;;7.85;;
69246;SDS011;56358;56.328;43.992;2023-04-03T02:35:18;13.45;;;6.45;;
69246;SDS011;56358;56.328;43.992;2023-04-03T02:37:19;10.23;;;5.57;;
69246;SDS011;56358;56.328;43.992;2023-04-03T02:39:20;12.75;;;5.68;;
69246;SDS011;56358;56.328;43.992;2023-04-03T02:41:21;10.65;;;6.07;;
69246;SDS011;56358;56.328;43.992;2023-04-03T02:43:22;10.40;;;5.63;;
69246;SDS011;56358;56.328;43.992;2023-04-03T02:45:23;12.55;;;6.88;;
69246;SDS011;56358;56.328;43.992;2023-04-03T02:47:23;12.45;;;6.20;;
69246;SDS011;56358;56.328;43.992;2023-04-03T02:49:24;13.65;;;6.50;;
69246;SDS011;56358;56.328;43.992;2023-04-03T02:51:24;12.05;;;6.65;;
69246;SDS011;56358;56.328;43.992;2023-04-03T02:53:25;13.15;;;6.43;;
69246;SDS011;56358;56.328;43.992;2023-04-03T02:55:26;12.07;;;6.47;;
69246;SDS011;56358;56.328;43.992;2023-04-03T02:57:26;12.30;;;5.78;;
69246;SDS011;56358;56.328;43.992;2023-04-03T02:59:27;11.82;;;6.22;;
69246;SDS011;56358;56.328;43.992;2023-04-03T03:01:28;13.77;;;6.53;;
69246;SDS011;56358;56.328;43.992;2023-04-03T03:05:31;11.98;;;6.07;;
69246;SDS011;56358;56.328;43.992;2023-04-03T03:07:33;10.32;;;6.03;;
69246;SDS011;56358;56.328;43.992;2023-04-03T03:09:33;13.45;;;6.13;;
69246;SDS011;56358;56.328;43.992;2023-04-03T03:11:34;11.52;;;5.97;;
69246;SDS011;56358;56.328;43.992;2023-04-03T03:13:35;15.93;;;7.10;;
69246;SDS011;56358;56.328;43.992;2023-04-03T03:15:36;13.00;;;6.57;;
69246;SDS011;56358;56.328;43.992;2023-04-03T03:17:37;16.60;;;7.28;;
69246;SDS011;56358;56.328;43.992;2023-04-03T03:19:37;17.23;;;6.88;;
69246;SDS011;56358;56.328;43.992;2023-04-03T03:21:38;17.10;;;7.65;;
69246;SDS011;56358;56.328;43.992;2023-04-03T03:23:39;14.80;;;7.20;;
69246;SDS011;56358;56.328;43.992;2023-04-03T03:25:40;18.02;;;8.00;;
69246;SDS011;56358;56.328;43.992;2023-04-03T03:27:41;13.63;;;7.32;;
69246;SDS011;56358;56.328;43.992;2023-04-03T03:29:42;14.68;;;7.18;;
69246;SDS011;56358;56.328;43.992;2023-04-03T03:31:42;14.65;;;6.88;;
69246;SDS011;56358;56.328;43.992;2023-04-03T03:33:43;16.52;;;6.40;;
69246;SDS011;56358;56.328;43.992;2023-04-03T03:35:44;19.42;;;8.25;;
69246;SDS011;56358;56.328;43.992;2023-04-03T03:37:45;17.42;;;8.13;;
69246;SDS011;56358;56.328;43.992;2023-04-03T03:39:45;19.35;;;8.23;;
69246;SDS011;56358;56.328;43.992;2023-04-03T03:41:46;19.92;;;8.43;;
69246;SDS011;56358;56.328;43.992;2023-04-03T03:43:47;20.30;;;8.27;;
69246;SDS011;56358;56.328;43.992;2023-04-03T03:45:51;15.57;;;8.23;;
69246;SDS011;56358;56.328;43.992;2023-04-03T03:47:52;15.15;;;7.38;;
69246;SDS011;56358;56.328;43.992;2023-04-03T03:49:53;18.85;;;8.52;;
69246;SDS011;56358;56.328;43.992;2023-04-03T03:51:54;18.27;;;9.05;;
69246;SDS011;56358;56.328;43.992;2023-04-03T03:53:55;21.95;;;7.95;;
69246;SDS011;56358;56.328;43.992;2023-04-03T03:55:55;16.05;;;9.15;;
69246;SDS011;56358;56.328;43.992;2023-04-03T03:57:56;20.75;;;9.00;;
69246;SDS011;56358;56.328;43.992;2023-04-03T03:59:57;21.33;;;8.50;;
69246;SDS011;56358;56.328;43.992;2023-04-03T04:01:57;18.17;;;8.88;;
69246;SDS011;56358;56.328;43.992;2023-04-03T04:03:58;19.70;;;9.43;;
69246;SDS011;56358;56.328;43.992;2023-04-03T04:05:59;19.90;;;8.88;;
69246;SDS011;56358;56.328;43.992;2023-04-03T04:07:59;21.58;;;9.60;;
69246;SDS011;56358;56.328;43.992;2023-04-03T04:10:00;21.20;;;9.93;;
69246;SDS011;56358;56.328;43.992;2023-04-03T04:12:01;20.15;;;9.45;;
69246;SDS011;56358;56.328;43.992;2023-04-03T04:14:01;19.85;;;9.18;;
69246;SDS011;56358;56.328;43.992;2023-04-03T04:16:02;19.20;;;9.60;;
69246;SDS011;56358;56.328;43.992;2023-04-03T04:18:03;21.95;;;9.40;;
69246;SDS011;56358;56.328;43.992;2023-04-03T04:20:04;24.02;;;9.80;;
69246;SDS011;56358;56.328;43.992;2023-04-03T04:22:05;21.45;;;9.20;;
69246;SDS011;56358;56.328;43.992;2023-04-03T04:24:06;20.92;;;9.43;;
69246;SDS011;56358;56.328;43.992;2023-04-03T04:26:07;21.20;;;9.27;;
69246;SDS011;56358;56.328;43.992;2023-04-03T04:28:08;21.17;;;9.80;;
69246;SDS011;56358;56.328;43.992;2023-04-03T04:30:08;18.52;;;9.82;;
69246;SDS011;56358;56.328;43.992;2023-04-03T04:32:10;21.40;;;9.98;;
69246;SDS011;56358;56.328;43.992;2023-04-03T04:34:11;17.77;;;8.70;;
69246;SDS011;56358;56.328;43.992;2023-04-03T04:36:13;22.75;;;9.57;;
69246;SDS011;56358;56.328;43.992;2023-04-03T04:38:14;21.52;;;10.25;;
69246;SDS011;56358;56.328;43.992;2023-04-03T04:40:15;20.92;;;9.30;;
69246;SDS011;56358;56.328;43.992;2023-04-03T04:42:16;20.10;;;9.77;;
69246;SDS011;56358;56.328;43.992;2023-04-03T04:44:17;19.80;;;8.73;;
69246;SDS011;56358;56.328;43.992;2023-04-03T04:46:17;14.52;;;8.25;;
69246;SDS011;56358;56.328;43.992;2023-04-03T04:48:18;30.25;;;13.70;;
69246;SDS011;56358;56.328;43.992;2023-04-03T04:50:19;19.83;;;8.48;;
69246;SDS011;56358;56.328;43.992;2023-04-03T04:52:19;18.02;;;8.20;;
69246;SDS011;56358;56.328;43.992;2023-04-03T04:54:20;21.00;;;9.02;;
69246;SDS011;56358;56.328;43.992;2023-04-03T04:56:21;26.00;;;8.65;;
69246;SDS011;56358;56.328;43.992;2023-04-03T04:58:22;15.10;;;7.75;;
69246;SDS011;56358;56.328;43.992;2023-04-03T05:00:22;19.85;;;8.60;;
69246;SDS011;56358;56.328;43.992;2023-04-03T05:02:23;18.20;;;8.73;;
69246;SDS011;56358;56.328;43.992;2023-04-03T05:04:24;21.50;;;10.70;;
69246;SDS011;56358;56.328;43.992;2023-04-03T05:06:24;22.73;;;10.00;;
69246;SDS011;56358;56.328;43.992;2023-04-03T05:08:25;22.20;;;9.15;;
69246;SDS011;56358;56.328;43.992;2023-04-03T05:10:26;19.30;;;8.82;;
69246;SDS011;56358;56.328;43.992;2023-04-03T05:12:27;18.05;;;8.75;;
69246;SDS011;56358;56.328;43.992;2023-04-03T05:14:28;22.52;;;9.48;;
69246;SDS011;56358;56.328;43.992;2023-04-03T05:16:28;21.52;;;8.40;;
69246;SDS011;56358;56.328;43.992;2023-04-03T05:18:29;20.60;;;8.60;;
69246;SDS011;56358;56.328;43.992;2023-04-03T05:20:30;23.80;;;8.40;;
69246;SDS011;56358;56.328;43.992;2023-04-03T05:22:31;30.25;;;12.68;;
69246;SDS011;56358;56.328;43.992;2023-04-03T05:24:32;20.65;;;8.77;;
69246;SDS011;56358;56.328;43.992;2023-04-03T05:26:33;24.13;;;9.85;;
69246;SDS011;56358;56.328;43.992;2023-04-03T05:28:33;18.33;;;8.13;;
69246;SDS011;56358;56.328;43.992;2023-04-03T05:30:34;18.92;;;7.22;;
69246;SDS011;56358;56.328;43.992;2023-04-03T05:32:35;20.52;;;8.60;;
69246;SDS011;56358;56.328;43.992;2023-04-03T05:34:36;20.83;;;7.78;;
69246;SDS011;56358;56.328;43.992;2023-04-03T05:36:37;24.42;;;8.05;;
69246;SDS011;56358;56.328;43.992;2023-04-03T05:38:38;19.88;;;6.82;;
69246;SDS011;56358;56.328;43.992;2023-04-03T05:40:39;24.92;;;7.10;;
69246;SDS011;56358;56.328;43.992;2023-04-03T05:42:40;16.35;;;7.25;;
69246;SDS011;56358;56.328;43.992;2023-04-03T05:44:40;15.30;;;7.28;;
69246;SDS011;56358;56.328;43.992;2023-04-03T05:46:41;16.48;;;7.00;;
69246;SDS011;56358;56.328;43.992;2023-04-03T05:48:42;17.08;;;6.40;;
69246;SDS011;56358;56.328;43.992;2023-04-03T05:50:43;19.08;;;6.78;;
69246;SDS011;56358;56.328;43.992;2023-04-03T05:52:44;16.02;;;6.75;;
69246;SDS011;56358;56.328;43.992;2023-04-03T05:54:47;10.57;;;5.95;;
69246;SDS011;56358;56.328;43.992;2023-04-03T05:56:49;64.68;;;21.50;;
69246;SDS011;56358;56.328;43.992;2023-04-03T05:58:50;18.33;;;6.20;;
69246;SDS011;56358;56.328;43.992;2023-04-03T06:00:50;16.05;;;6.43;;
69246;SDS011;56358;56.328;43.992;2023-04-03T06:02:51;20.35;;;6.72;;
69246;SDS011;56358;56.328;43.992;2023-04-03T06:04:52;17.23;;;5.85;;
69246;SDS011;56358;56.328;43.992;2023-04-03T06:06:54;20.67;;;6.90;;
69246;SDS011;56358;56.328;43.992;2023-04-03T06:08:57;17.30;;;6.07;;
69246;SDS011;56358;56.328;43.992;2023-04-03T06:10:58;19.30;;;7.50;;
69246;SDS011;56358;56.328;43.992;2023-04-03T06:12:58;15.45;;;6.55;;
69246;SDS011;56358;56.328;43.992;2023-04-03T06:14:59;45.13;;;17.23;;
69246;SDS011;56358;56.328;43.992;2023-04-03T06:16:59;17.83;;;7.50;;
69246;SDS011;56358;56.328;43.992;2023-04-03T06:19:01;16.58;;;7.05;;
69246;SDS011;56358;56.328;43.992;2023-04-03T06:21:02;20.15;;;6.53;;
69246;SDS011;56358;56.328;43.992;2023-04-03T06:23:04;18.48;;;6.38;;
69246;SDS011;56358;56.328;43.992;2023-04-03T06:25:05;16.92;;;6.05;;
69246;SDS011;56358;56.328;43.992;2023-04-03T06:27:06;20.75;;;6.55;;
69246;SDS011;56358;56.328;43.992;2023-04-03T06:29:07;21.88;;;6.55;;
69246;SDS011;56358;56.328;43.992;2023-04-03T06:31:08;16.25;;;6.13;;
69246;SDS011;56358;56.328;43.992;2023-04-03T06:33:09;15.07;;;6.63;;
69246;SDS011;56358;56.328;43.992;2023-04-03T06:35:10;20.42;;;9.23;;
69246;SDS011;56358;56.328;43.992;2023-04-03T06:37:15;18.90;;;6.65;;
69246;SDS011;56358;56.328;43.992;2023-04-03T06:39:19;24.98;;;9.38;;
69246;SDS011;56358;56.328;43.992;2023-04-03T06:41:22;21.02;;;6.25;;
69246;SDS011;56358;56.328;43.992;2023-04-03T06:43:23;16.35;;;6.47;;
69246;SDS011;56358;56.328;43.992;2023-04-03T06:45:24;25.05;;;6.80;;
69246;SDS011;56358;56.328;43.992;2023-04-03T06:47:25;17.23;;;5.90;;
69246;SDS011;56358;56.328;43.992;2023-04-03T06:49:26;15.68;;;6.22;;
69246;SDS011;56358;56.328;43.992;2023-04-03T06:51:28;17.33;;;6.63;;
69246;SDS011;56358;56.328;43.992;2023-04-03T06:53:29;18.30;;;6.63;;
69246;SDS011;56358;56.328;43.992;2023-04-03T06:55:30;17.02;;;6.55;;
69246;SDS011;56358;56.328;43.992;2023-04-03T06:57:31;13.95;;;6.40;;
69246;SDS011;56358;56.328;43.992;2023-04-03T06:59:32;20.67;;;6.18;;
69246;SDS011;56358;56.328;43.992;2023-04-03T07:01:33;15.52;;;6.13;;
69246;SDS011;56358;56.328;43.992;2023-04-03T07:03:33;14.20;;;5.88;;
69246;SDS011;56358;56.328;43.992;2023-04-03T07:05:35;11.50;;;5.55;;
69246;SDS011;56358;56.328;43.992;2023-04-03T07:07:36;12.48;;;5.57;;
69246;SDS011;56358;56.328;43.992;2023-04-03T07:09:37;11.57;;;5.95;;
69246;SDS011;56358;56.328;43.992;2023-04-03T07:11:38;18.52;;;6.20;;
69246;SDS011;56358;56.328;43.992;2023-04-03T07:13:39;14.38;;;5.95;;
69246;SDS011;56358;56.328;43.992;2023-04-03T07:15:40;15.93;;;6.00;;
69246;SDS011;56358;56.328;43.992;2023-04-03T07:17:41;14.95;;;6.00;;
69246;SDS011;56358;56.328;43.992;2023-04-03T07:19:41;16.52;;;5.80;;
69246;SDS011;56358;56.328;43.992;2023-04-03T07:21:42;12.25;;;5.20;;
69246;SDS011;56358;56.328;43.992;2023-04-03T07:23:43;16.33;;;5.50;;
69246;SDS011;56358;56.328;43.992;2023-04-03T07:25:45;13.18;;;5.45;;
69246;SDS011;56358;56.328;43.992;2023-04-03T07:27:46;16.73;;;5.60;;
69246;SDS011;56358;56.328;43.992;2023-04-03T07:29:47;20.05;;;9.43;;
69246;SDS011;56358;56.328;43.992;2023-04-03T07:31:49;16.23;;;7.20;;
69246;SDS011;56358;56.328;43.992;2023-04-03T07:33:49;17.45;;;5.82;;
69246;SDS011;56358;56.328;43.992;2023-04-03T07:35:50;12.68;;;5.68;;
69246;SDS011;56358;56.328;43.992;2023-04-03T07:37:51;13.30;;;4.72;;
69246;SDS011;56358;56.328;43.992;2023-04-03T07:39:51;14.07;;;5.32;;
69246;SDS011;56358;56.328;43.992;2023-04-03T07:41:52;13.45;;;5.05;;
69246;SDS011;56358;56.328;43.992;2023-04-03T07:43:53;14.38;;;4.55;;
69246;SDS011;56358;56.328;43.992;2023-04-03T07:45:54;9.02;;;4.75;;
69246;SDS011;56358;56.328;43.992;2023-04-03T07:47:55;10.05;;;4.63;;
69246;SDS011;56358;56.328;43.992;2023-04-03T07:49:56;11.65;;;4.50;;
69246;SDS011;56358;56.328;43.992;2023-04-03T07:51:57;8.63;;;4.63;;
69246;SDS011;56358;56.328;43.992;2023-04-03T07:53:58;16.48;;;4.90;;
69246;SDS011;56358;56.328;43.992;2023-04-03T07:55:59;12.35;;;4.35;;
69246;SDS011;56358;56.328;43.992;2023-04-03T07:58:02;11.93;;;5.07;;
69246;SDS011;56358;56.328;43.992;2023-04-03T08:00:03;8.85;;;3.80;;
69246;SDS011;56358;56.328;43.992;2023-04-03T08:02:05;7.82;;;3.83;;
69246;SDS011;56358;56.328;43.992;2023-04-03T08:04:05;12.73;;;4.38;;
69246;SDS011;56358;56.328;43.992;2023-04-03T08:06:07;8.85;;;3.70;;
69246;SDS011;56358;56.328;43.992;2023-04-03T08:08:10;10.07;;;4.78;;
69246;SDS011;56358;56.328;43.992;2023-04-03T08:10:13;8.63;;;3.90;;
69246;SDS011;56358;56.328;43.992;2023-04-03T08:12:14;10.15;;;4.20;;
69246;SDS011;56358;56.328;43.992;2023-04-03T08:14:15;8.18;;;3.50;;
69246;SDS011;56358;56.328;43.992;2023-04-03T08:16:18;8.77;;;4.18;;
69246;SDS011;56358;56.328;43.992;2023-04-03T08:18:22;10.95;;;4.32;;
69246;SDS011;56358;56.328;43.992;2023-04-03T08:20:24;7.45;;;4.50;;
69246;SDS011;56358;56.328;43.992;2023-04-03T08:22:25;8.77;;;4.03;;
69246;SDS011;56358;56.328;43.992;2023-04-03T08:24:26;8.35;;;3.83;;
69246;SDS011;56358;56.328;43.992;2023-04-03T08:26:27;7.50;;;3.78;;
69246;SDS011;56358;56.328;43.992;2023-04-03T08:28:28;17.75;;;7.65;;
69246;SDS011;56358;56.328;43.992;2023-04-03T08:30:28;8.05;;;3.90;;
69246;SDS011;56358;56.328;43.992;2023-04-03T08:32:29;10.15;;;4.15;;
69246;SDS011;56358;56.328;43.992;2023-04-03T08:34:30;8.73;;;4.10;;
69246;SDS011;56358;56.328;43.992;2023-04-03T08:36:34;9.38;;;4.05;;
69246;SDS011;56358;56.328;43.992;2023-04-03T08:38:35;7.82;;;4.22;;
69246;SDS011;56358;56.328;43.992;2023-04-03T08:40:37;11.65;;;4.22;;
69246;SDS011;56358;56.328;43.992;2023-04-03T08:42:42;12.45;;;4.10;;
69246;SDS011;56358;56.328;43.992;2023-04-03T08:47:26;7.95;;;3.40;;
69246;SDS011;56358;56.328;43.992;2023-04-03T08:49:33;8.70;;;4.65;;
69246;SDS011;56358;56.328;43.992;2023-04-03T08:51:47;13.02;;;3.78;;
69246;SDS011;56358;56.328;43.992;2023-04-03T08:53:59;8.10;;;3.53;;
69246;SDS011;56358;56.328;43.992;2023-04-03T08:56:10;7.18;;;3.58;;
69246;SDS011;56358;56.328;43.992;2023-04-03T08:58:16;20.50;;;9.52;;
69246;SDS011;56358;56.328;43.992;2023-04-03T09:00:20;8.77;;;3.70;;
69246;SDS011;56358;56.328;43.992;2023-04-03T09:02:26;9.13;;;3.30;;
69246;SDS011;56358;56.328;43.992;2023-04-03T09:04:32;25.15;;;11.45;;
69246;SDS011;56358;56.328;43.992;2023-04-03T09:06:33;9.80;;;3.85;;
69246;SDS011;56358;56.328;43.992;2023-04-03T09:08:43;7.05;;;3.60;;
69246;SDS011;56358;56.328;43.992;2023-04-03T09:10:52;12.00;;;4.53;;
69246;SDS011;56358;56.328;43.992;2023-04-03T09:15:38;11.10;;;3.92;;
69246;SDS011;56358;56.328;43.992;2023-04-03T09:20:31;11.10;;;3.60;;
69246;SDS011;56358;56.328;43.992;2023-04-03T09:22:23;7.40;;;3.60;;
69246;SDS011;56358;56.328;43.992;2023-04-03T09:24:25;8.18;;;3.30;;
69246;SDS011;56358;56.328;43.992;2023-04-03T09:26:41;9.65;;;3.40;;
69246;SDS011;56358;56.328;43.992;2023-04-03T09:28:45;6.57;;;3.47;;
69246;SDS011;56358;56.328;43.992;2023-04-03T09:30:46;7.53;;;4.35;;
69246;SDS011;56358;56.328;43.992;2023-04-03T09:32:48;30.25;;;13.77;;
69246;SDS011;56358;56.328;43.992;2023-04-03T09:34:51;9.60;;;3.85;;
69246;SDS011;56358;56.328;43.992;2023-04-03T09:36:55;8.10;;;4.20;;
69246;SDS011;56358;56.328;43.992;2023-04-03T09:39:04;9.00;;;3.80;;
69246;SDS011;56358;56.328;43.992;2023-04-03T09:41:15;11.27;;;4.05;;
69246;SDS011;56358;56.328;43.992;2023-04-03T09:43:20;10.25;;;3.67;;
69246;SDS011;56358;56.328;43.992;2023-04-03T09:45:32;7.55;;;3.60;;
69246;SDS011;56358;56.328;43.992;2023-04-03T09:47:35;11.98;;;3.58;;
69246;SDS011;56358;56.328;43.992;2023-04-03T09:49:36;7.50;;;3.53;;
69246;SDS011;56358;56.328;43.992;2023-04-03T09:51:37;5.93;;;3.35;;
69246;SDS011;56358;56.328;43.992;2023-04-03T09:53:39;8.82;;;3.40;;
69246;SDS011;56358;56.328;43.992;2023-04-03T09:55:43;7.60;;;3.50;;
69246;SDS011;56358;56.328;43.992;2023-04-03T09:57:45;6.88;;;3.03;;
69246;SDS011;56358;56.328;43.992;2023-04-03T09:59:59;6.72;;;3.13;;
69246;SDS011;56358;56.328;43.992;2023-04-03T10:04:16;9.20;;;4.20;;
69246;SDS011;56358;56.328;43.992;2023-04-03T10:06:21;6.65;;;3.35;;
69246;SDS011;56358;56.328;43.992;2023-04-03T10:10:27;5.78;;;2.90;;
69246;SDS011;56358;56.328;43.992;2023-04-03T10:12:27;6.57;;;2.95;;
69246;SDS011;56358;56.328;43.992;2023-04-03T10:14:29;7.78;;;3.78;;
69246;SDS011;56358;56.328;43.992;2023-04-03T10:16:41;9.93;;;3.60;;
69246;SDS011;56358;56.328;43.992;2023-04-03T10:18:52;6.38;;;2.92;;
69246;SDS011;56358;56.328;43.992;2023-04-03T10:27:47;6.63;;;3.05;;
69246;SDS011;56358;56.328;43.992;2023-04-03T10:29:55;6.30;;;3.28;;
69246;SDS011;56358;56.328;43.992;2023-04-03T10:32:22;8.75;;;3.40;;
69246;SDS011;56358;56.328;43.992;2023-04-03T10:34:48;18.10;;;5.35;;
69246;SDS011;56358;56.328;43.992;2023-04-03T10:37:24;8.20;;;3.63;;
69246;SDS011;56358;56.328;43.992;2023-04-03T10:41:49;11.95;;;3.92;;
69246;SDS011;56358;56.328;43.992;2023-04-03T10:46:38;10.25;;;4.07;;
69246;SDS011;56358;56.328;43.992;2023-04-03T10:48:53;7.68;;;3.55;;
69246;SDS011;56358;56.328;43.992;2023-04-03T10:58:37;7.07;;;3.00;;
69246;SDS011;56358;56.328;43.992;2023-04-03T11:00:42;4.72;;;2.80;;
69246;SDS011;56358;56.328;43.992;2023-04-03T11:04:57;11.40;;;3.60;;
69246;SDS011;56358;56.328;43.992;2023-04-03T11:07:08;6.60;;;3.28;;
69246;SDS011;56358;56.328;43.992;2023-04-03T11:15:44;8.43;;;3.10;;
69246;SDS011;56358;56.328;43.992;2023-04-03T11:17:58;7.47;;;2.92;;
69246;SDS011;56358;56.328;43.992;2023-04-03T11:24:27;4.03;;;2.50;;
69246;SDS011;56358;56.328;43.992;2023-04-03T11:26:34;6.03;;;2.30;;
69246;SDS011;56358;56.328;43.992;2023-04-03T11:28:39;6.55;;;2.60;;
69246;SDS011;56358;56.328;43.992;2023-04-03T11:35:23;7.95;;;2.97;;
69246;SDS011;56358;56.328;43.992;2023-04-03T11:39:39;6.30;;;3.05;;
69246;SDS011;56358;56.328;43.992;2023-04-03T11:41:50;8.25;;;2.78;;
69246;SDS011;56358;56.328;43.992;2023-04-03T11:46:06;8.02;;;3.00;;
69246;SDS011;56358;56.328;43.992;2023-04-03T11:54:44;8.48;;;2.78;;
69246;SDS011;56358;56.328;43.992;2023-04-03T11:56:46;6.55;;;2.80;;
69246;SDS011;56358;56.328;43.992;2023-04-03T12:01:42;4.03;;;2.20;;
69246;SDS011;56358;56.328;43.992;2023-04-03T12:05:49;5.28;;;2.65;;
69246;SDS011;56358;56.328;43.992;2023-04-03T12:10:34;6.57;;;3.22;;
69246;SDS011;56358;56.328;43.992;2023-04-03T12:12:36;5.75;;;3.28;;
69246;SDS011;56358;56.328;43.992;2023-04-03T12:14:39;16.65;;;7.65;;
69246;SDS011;56358;56.328;43.992;2023-04-03T12:20:55;8.27;;;3.33;;
69246;SDS011;56358;56.328;43.992;2023-04-03T12:25:54;7.38;;;2.75;;
69246;SDS011;56358;56.328;43.992;2023-04-03T12:27:59;5.68;;;2.58;;
69246;SDS011;56358;56.328;43.992;2023-04-03T12:37:03;8.57;;;3.00;;
69246;SDS011;56358;56.328;43.992;2023-04-03T12:42:03;9.45;;;3.95;;
69246;SDS011;56358;56.328;43.992;2023-04-03T12:47:07;7.97;;;3.15;;
69246;SDS011;56358;56.328;43.992;2023-04-03T12:49:00;6.97;;;3.60;;
69246;SDS011;56358;56.328;43.992;2023-04-03T12:51:02;14.52;;;6.38;;
69246;SDS011;56358;56.328;43.992;2023-04-03T12:55:18;11.25;;;4.10;;
69246;SDS011;56358;56.328;43.992;2023-04-03T12:57:21;13.55;;;3.50;;
69246;SDS011;56358;56.328;43.992;2023-04-03T12:59:26;10.52;;;3.05;;
69246;SDS011;56358;56.328;43.992;2023-04-03T13:01:27;7.15;;;2.60;;
69246;SDS011;56358;56.328;43.992;2023-04-03T13:03:27;6.97;;;2.60;;
69246;SDS011;56358;56.328;43.992;2023-04-03T13:05:29;10.57;;;3.17;;
69246;SDS011;56358;56.328;43.992;2023-04-03T13:07:32;11.98;;;3.70;;
69246;SDS011;56358;56.328;43.992;2023-04-03T13:09:34;10.95;;;3.28;;
69246;SDS011;56358;56.328;43.992;2023-04-03T13:11:36;12.02;;;2.80;;
69246;SDS011;56358;56.328;43.992;2023-04-03T13:13:53;13.20;;;2.90;;
69246;SDS011;56358;56.328;43.992;2023-04-03T13:15:55;13.18;;;3.17;;
69246;SDS011;56358;56.328;43.992;2023-04-03T13:17:56;6.53;;;2.85;;
69246;SDS011;56358;56.328;43.992;2023-04-03T13:20:09;11.02;;;3.45;;
69246;SDS011;56358;56.328;43.992;2023-04-03T13:24:39;10.85;;;4.50;;
69246;SDS011;56358;56.328;43.992;2023-04-03T13:26:40;8.15;;;3.95;;
69246;SDS011;56358;56.328;43.992;2023-04-03T13:28:41;10.27;;;3.10;;
69246;SDS011;56358;56.328;43.992;2023-04-03T13:30:56;12.55;;;2.90;;
69246;SDS011;56358;56.328;43.992;2023-04-03T13:33:03;10.95;;;2.88;;
69246;SDS011;56358;56.328;43.992;2023-04-03T13:35:26;10.98;;;3.13;;